sensor_id;sensor_type;location;lat;lon;timestamp;P1;durP1;ratioP1;P2;durP2;ratioP2
39880;SDS011;25554;44.954;10.068;2022-07-24T00:00:29;17.42;;;12.30;;
39880;SDS011;25554;44.954;10.068;2022-07-24T00:02:55;21.67;;;12.48;;
39880;SDS011;25554;44.954;10.068;2022-07-24T00:05:22;15.15;;;11.85;;
39880;SDS011;25554;44.954;10.068;2022-07-24T00:07:48;24.15;;;13.27;;
39880;SDS011;25554;44.954;10.068;2022-07-24T00:10:15;18.95;;;12.18;;
39880;SDS011;25554;44.954;10.068;2022-07-24T00:12:41;18.42;;;12.80;;
39880;SDS011;25554;44.954;10.068;2022-07-24T00:15:08;17.48;;;10.98;;
39880;SDS011;25554;44.954;10.068;2022-07-24T00:17:35;20.48;;;10.95;;
39880;SDS011;25554;44.954;10.068;2022-07-24T00:20:02;20.05;;;10.98;;
39880;SDS011;25554;44.954;10.068;2022-07-24T00:22:30;17.50;;;10.77;;
39880;SDS011;25554;44.954;10.068;2022-07-24T00:24:56;18.42;;;10.43;;
39880;SDS011;25554;44.954;10.068;2022-07-24T00:27:23;12.60;;;9.10;;
39880;SDS011;25554;44.954;10.068;2022-07-24T00:29:49;14.23;;;9.77;;
39880;SDS011;25554;44.954;10.068;2022-07-24T00:32:16;13.48;;;10.05;;
39880;SDS011;25554;44.954;10.068;2022-07-24T00:34:43;12.13;;;9.25;;
39880;SDS011;25554;44.954;10.068;2022-07-24T00:37:09;14.45;;;9.80;;
39880;SDS011;25554;44.954;10.068;2022-07-24T00:39:36;13.00;;;9.35;;
39880;SDS011;25554;44.954;10.068;2022-07-24T00:42:02;13.88;;;8.57;;
39880;SDS011;25554;44.954;10.068;2022-07-24T00:44:29;11.23;;;9.10;;
39880;SDS011;25554;44.954;10.068;2022-07-24T00:46:56;13.93;;;9.57;;
39880;SDS011;25554;44.954;10.068;2022-07-24T00:49:22;11.15;;;9.00;;
39880;SDS011;25554;44.954;10.068;2022-07-24T00:51:50;11.68;;;8.70;;
39880;SDS011;25554;44.954;10.068;2022-07-24T00:54:18;14.32;;;10.07;;
39880;SDS011;25554;44.954;10.068;2022-07-24T00:56:46;12.80;;;9.93;;
39880;SDS011;25554;44.954;10.068;2022-07-24T00:59:15;14.68;;;10.68;;
39880;SDS011;25554;44.954;10.068;2022-07-24T01:01:42;14.55;;;11.45;;
39880;SDS011;25554;44.954;10.068;2022-07-24T01:04:08;17.63;;;11.02;;
39880;SDS011;25554;44.954;10.068;2022-07-24T01:06:35;20.02;;;12.07;;
39880;SDS011;25554;44.954;10.068;2022-07-24T01:09:02;13.48;;;10.80;;
39880;SDS011;25554;44.954;10.068;2022-07-24T01:11:29;11.30;;;9.52;;
39880;SDS011;25554;44.954;10.068;2022-07-24T01:13:55;10.10;;;9.07;;
39880;SDS011;25554;44.954;10.068;2022-07-24T01:16:22;13.48;;;10.43;;
39880;SDS011;25554;44.954;10.068;2022-07-24T01:18:49;11.32;;;9.65;;
39880;SDS011;25554;44.954;10.068;2022-07-24T01:21:15;10.40;;;9.40;;
39880;SDS011;25554;44.954;10.068;2022-07-24T01:23:42;12.25;;;9.18;;
39880;SDS011;25554;44.954;10.068;2022-07-24T01:26:10;12.27;;;9.30;;
39880;SDS011;25554;44.954;10.068;2022-07-24T01:28:37;14.98;;;9.00;;
39880;SDS011;25554;44.954;10.068;2022-07-24T01:31:03;19.42;;;10.23;;
39880;SDS011;25554;44.954;10.068;2022-07-24T01:33:30;13.27;;;10.18;;
39880;SDS011;25554;44.954;10.068;2022-07-24T01:35:57;19.83;;;10.38;;
39880;SDS011;25554;44.954;10.068;2022-07-24T01:38:23;10.80;;;9.75;;
39880;SDS011;25554;44.954;10.068;2022-07-24T01:40:50;16.48;;;10.30;;
39880;SDS011;25554;44.954;10.068;2022-07-24T01:43:17;16.42;;;10.30;;
39880;SDS011;25554;44.954;10.068;2022-07-24T01:45:43;12.45;;;10.23;;
39880;SDS011;25554;44.954;10.068;2022-07-24T01:48:10;15.48;;;11.18;;
39880;SDS011;25554;44.954;10.068;2022-07-24T01:50:36;13.20;;;10.48;;
39880;SDS011;25554;44.954;10.068;2022-07-24T01:53:03;15.85;;;11.43;;
39880;SDS011;25554;44.954;10.068;2022-07-24T01:55:30;12.82;;;11.63;;
39880;SDS011;25554;44.954;10.068;2022-07-24T01:57:56;15.57;;;12.02;;
39880;SDS011;25554;44.954;10.068;2022-07-24T02:00:23;12.52;;;10.95;;
39880;SDS011;25554;44.954;10.068;2022-07-24T02:02:49;12.35;;;11.20;;
39880;SDS011;25554;44.954;10.068;2022-07-24T02:05:16;14.07;;;11.55;;
39880;SDS011;25554;44.954;10.068;2022-07-24T02:07:43;12.43;;;10.48;;
39880;SDS011;25554;44.954;10.068;2022-07-24T02:10:12;11.63;;;10.13;;
39880;SDS011;25554;44.954;10.068;2022-07-24T02:12:39;12.43;;;11.13;;
39880;SDS011;25554;44.954;10.068;2022-07-24T02:15:06;11.85;;;10.48;;
39880;SDS011;25554;44.954;10.068;2022-07-24T02:17:33;14.98;;;10.77;;
39880;SDS011;25554;44.954;10.068;2022-07-24T02:19:59;12.73;;;10.73;;
39880;SDS011;25554;44.954;10.068;2022-07-24T02:22:26;12.23;;;10.38;;
39880;SDS011;25554;44.954;10.068;2022-07-24T02:24:52;20.23;;;12.13;;
39880;SDS011;25554;44.954;10.068;2022-07-24T02:27:19;12.60;;;10.32;;
39880;SDS011;25554;44.954;10.068;2022-07-24T02:29:45;15.00;;;10.70;;
39880;SDS011;25554;44.954;10.068;2022-07-24T02:32:12;12.07;;;10.27;;
39880;SDS011;25554;44.954;10.068;2022-07-24T02:34:39;10.45;;;9.20;;
39880;SDS011;25554;44.954;10.068;2022-07-24T02:37:05;14.90;;;10.70;;
39880;SDS011;25554;44.954;10.068;2022-07-24T02:39:32;12.43;;;11.07;;
39880;SDS011;25554;44.954;10.068;2022-07-24T02:41:58;13.90;;;10.07;;
39880;SDS011;25554;44.954;10.068;2022-07-24T02:44:25;11.70;;;9.38;;
39880;SDS011;25554;44.954;10.068;2022-07-24T02:46:51;13.27;;;10.90;;
39880;SDS011;25554;44.954;10.068;2022-07-24T02:49:18;13.40;;;9.30;;
39880;SDS011;25554;44.954;10.068;2022-07-24T02:51:44;12.45;;;10.80;;
39880;SDS011;25554;44.954;10.068;2022-07-24T02:54:11;10.60;;;9.18;;
39880;SDS011;25554;44.954;10.068;2022-07-24T02:56:37;11.85;;;8.80;;
39880;SDS011;25554;44.954;10.068;2022-07-24T02:59:04;13.90;;;10.50;;
39880;SDS011;25554;44.954;10.068;2022-07-24T03:01:30;14.13;;;10.20;;
39880;SDS011;25554;44.954;10.068;2022-07-24T03:03:57;11.70;;;10.45;;
39880;SDS011;25554;44.954;10.068;2022-07-24T03:06:23;14.20;;;10.85;;
39880;SDS011;25554;44.954;10.068;2022-07-24T03:08:50;12.63;;;10.60;;
39880;SDS011;25554;44.954;10.068;2022-07-24T03:11:17;13.50;;;10.57;;
39880;SDS011;25554;44.954;10.068;2022-07-24T03:13:43;11.07;;;9.88;;
39880;SDS011;25554;44.954;10.068;2022-07-24T03:16:10;14.32;;;10.55;;
39880;SDS011;25554;44.954;10.068;2022-07-24T03:18:36;13.75;;;10.32;;
39880;SDS011;25554;44.954;10.068;2022-07-24T03:21:03;13.70;;;11.10;;
39880;SDS011;25554;44.954;10.068;2022-07-24T03:23:29;14.05;;;10.45;;
39880;SDS011;25554;44.954;10.068;2022-07-24T03:25:56;10.55;;;9.30;;
39880;SDS011;25554;44.954;10.068;2022-07-24T03:28:23;14.82;;;9.70;;
39880;SDS011;25554;44.954;10.068;2022-07-24T03:30:49;13.80;;;9.60;;
39880;SDS011;25554;44.954;10.068;2022-07-24T03:33:16;13.25;;;8.88;;
39880;SDS011;25554;44.954;10.068;2022-07-24T03:35:42;15.48;;;9.95;;
39880;SDS011;25554;44.954;10.068;2022-07-24T03:38:09;12.35;;;9.88;;
39880;SDS011;25554;44.954;10.068;2022-07-24T03:40:36;11.20;;;10.00;;
39880;SDS011;25554;44.954;10.068;2022-07-24T03:43:02;14.65;;;11.35;;
39880;SDS011;25554;44.954;10.068;2022-07-24T03:45:29;13.70;;;11.40;;
39880;SDS011;25554;44.954;10.068;2022-07-24T03:47:55;13.85;;;11.43;;
39880;SDS011;25554;44.954;10.068;2022-07-24T03:50:22;12.85;;;10.75;;
39880;SDS011;25554;44.954;10.068;2022-07-24T03:52:49;15.43;;;11.32;;
39880;SDS011;25554;44.954;10.068;2022-07-24T03:55:15;11.70;;;10.25;;
39880;SDS011;25554;44.954;10.068;2022-07-24T03:57:42;14.82;;;11.18;;
39880;SDS011;25554;44.954;10.068;2022-07-24T04:00:08;17.88;;;11.43;;
39880;SDS011;25554;44.954;10.068;2022-07-24T04:02:38;12.90;;;10.38;;
39880;SDS011;25554;44.954;10.068;2022-07-24T04:05:05;12.10;;;10.25;;
39880;SDS011;25554;44.954;10.068;2022-07-24T04:07:34;13.10;;;9.98;;
39880;SDS011;25554;44.954;10.068;2022-07-24T04:10:01;13.50;;;9.65;;
39880;SDS011;25554;44.954;10.068;2022-07-24T04:12:29;12.73;;;9.25;;
39880;SDS011;25554;44.954;10.068;2022-07-24T04:14:55;18.17;;;9.98;;
39880;SDS011;25554;44.954;10.068;2022-07-24T04:17:22;13.55;;;10.25;;
39880;SDS011;25554;44.954;10.068;2022-07-24T04:19:48;10.65;;;9.25;;
39880;SDS011;25554;44.954;10.068;2022-07-24T04:22:15;14.43;;;9.25;;
39880;SDS011;25554;44.954;10.068;2022-07-24T04:24:42;10.90;;;9.30;;
39880;SDS011;25554;44.954;10.068;2022-07-24T04:27:08;10.43;;;8.90;;
39880;SDS011;25554;44.954;10.068;2022-07-24T04:29:35;12.35;;;8.82;;
39880;SDS011;25554;44.954;10.068;2022-07-24T04:32:01;10.30;;;8.48;;
39880;SDS011;25554;44.954;10.068;2022-07-24T04:34:28;13.00;;;9.35;;
39880;SDS011;25554;44.954;10.068;2022-07-24T04:36:54;9.88;;;8.07;;
39880;SDS011;25554;44.954;10.068;2022-07-24T04:39:21;12.65;;;8.73;;
39880;SDS011;25554;44.954;10.068;2022-07-24T04:41:47;11.13;;;8.50;;
39880;SDS011;25554;44.954;10.068;2022-07-24T04:44:14;16.30;;;9.05;;
39880;SDS011;25554;44.954;10.068;2022-07-24T04:46:41;12.65;;;7.72;;
39880;SDS011;25554;44.954;10.068;2022-07-24T04:49:08;11.05;;;7.90;;
39880;SDS011;25554;44.954;10.068;2022-07-24T04:51:34;14.13;;;8.00;;
39880;SDS011;25554;44.954;10.068;2022-07-24T04:54:01;15.02;;;9.90;;
39880;SDS011;25554;44.954;10.068;2022-07-24T04:56:28;14.35;;;10.32;;
39880;SDS011;25554;44.954;10.068;2022-07-24T04:58:57;13.32;;;9.80;;
39880;SDS011;25554;44.954;10.068;2022-07-24T05:01:24;12.85;;;10.80;;
39880;SDS011;25554;44.954;10.068;2022-07-24T05:03:50;10.93;;;9.80;;
39880;SDS011;25554;44.954;10.068;2022-07-24T05:06:17;18.02;;;10.38;;
39880;SDS011;25554;44.954;10.068;2022-07-24T05:08:43;15.90;;;11.20;;
39880;SDS011;25554;44.954;10.068;2022-07-24T05:11:10;14.45;;;9.60;;
39880;SDS011;25554;44.954;10.068;2022-07-24T05:13:37;16.88;;;9.73;;
39880;SDS011;25554;44.954;10.068;2022-07-24T05:16:03;18.05;;;10.15;;
39880;SDS011;25554;44.954;10.068;2022-07-24T05:18:30;15.55;;;9.65;;
39880;SDS011;25554;44.954;10.068;2022-07-24T05:20:56;15.63;;;9.38;;
39880;SDS011;25554;44.954;10.068;2022-07-24T05:23:23;17.52;;;9.45;;
39880;SDS011;25554;44.954;10.068;2022-07-24T05:25:49;22.75;;;9.38;;
39880;SDS011;25554;44.954;10.068;2022-07-24T05:28:16;15.15;;;9.70;;
39880;SDS011;25554;44.954;10.068;2022-07-24T05:30:43;14.15;;;9.75;;
39880;SDS011;25554;44.954;10.068;2022-07-24T05:33:10;18.88;;;9.65;;
39880;SDS011;25554;44.954;10.068;2022-07-24T05:35:36;18.42;;;9.65;;
39880;SDS011;25554;44.954;10.068;2022-07-24T05:38:03;14.43;;;9.43;;
39880;SDS011;25554;44.954;10.068;2022-07-24T05:40:29;12.45;;;8.77;;
39880;SDS011;25554;44.954;10.068;2022-07-24T05:42:56;16.60;;;10.00;;
39880;SDS011;25554;44.954;10.068;2022-07-24T05:45:22;14.13;;;10.25;;
39880;SDS011;25554;44.954;10.068;2022-07-24T05:47:49;16.48;;;11.38;;
39880;SDS011;25554;44.954;10.068;2022-07-24T05:50:15;25.17;;;15.73;;
39880;SDS011;25554;44.954;10.068;2022-07-24T05:52:42;21.58;;;17.02;;
39880;SDS011;25554;44.954;10.068;2022-07-24T05:55:09;24.77;;;16.83;;
39880;SDS011;25554;44.954;10.068;2022-07-24T05:57:35;20.65;;;15.65;;
39880;SDS011;25554;44.954;10.068;2022-07-24T06:00:03;15.63;;;12.95;;
39880;SDS011;25554;44.954;10.068;2022-07-24T06:02:37;16.73;;;12.27;;
39880;SDS011;25554;44.954;10.068;2022-07-24T06:07:30;12.68;;;11.38;;
39880;SDS011;25554;44.954;10.068;2022-07-24T06:09:56;15.30;;;12.02;;
39880;SDS011;25554;44.954;10.068;2022-07-24T06:12:23;15.15;;;12.73;;
39880;SDS011;25554;44.954;10.068;2022-07-24T06:14:49;16.05;;;11.98;;
39880;SDS011;25554;44.954;10.068;2022-07-24T06:17:16;13.60;;;12.18;;
39880;SDS011;25554;44.954;10.068;2022-07-24T06:19:43;14.93;;;13.07;;
39880;SDS011;25554;44.954;10.068;2022-07-24T06:22:09;16.10;;;12.93;;
39880;SDS011;25554;44.954;10.068;2022-07-24T06:24:36;19.33;;;12.70;;
39880;SDS011;25554;44.954;10.068;2022-07-24T06:27:02;15.40;;;12.00;;
39880;SDS011;25554;44.954;10.068;2022-07-24T06:29:30;14.43;;;11.70;;
39880;SDS011;25554;44.954;10.068;2022-07-24T06:31:57;20.27;;;14.20;;
39880;SDS011;25554;44.954;10.068;2022-07-24T06:34:24;14.00;;;12.27;;
39880;SDS011;25554;44.954;10.068;2022-07-24T06:36:51;14.52;;;12.93;;
39880;SDS011;25554;44.954;10.068;2022-07-24T06:39:18;19.40;;;13.38;;
39880;SDS011;25554;44.954;10.068;2022-07-24T06:41:44;15.90;;;12.65;;
39880;SDS011;25554;44.954;10.068;2022-07-24T06:44:23;14.88;;;13.38;;
39880;SDS011;25554;44.954;10.068;2022-07-24T06:46:50;14.77;;;13.25;;
39880;SDS011;25554;44.954;10.068;2022-07-24T06:49:16;14.32;;;12.38;;
39880;SDS011;25554;44.954;10.068;2022-07-24T06:51:43;14.13;;;11.32;;
39880;SDS011;25554;44.954;10.068;2022-07-24T06:54:09;13.95;;;10.20;;
39880;SDS011;25554;44.954;10.068;2022-07-24T06:56:36;19.73;;;10.68;;
39880;SDS011;25554;44.954;10.068;2022-07-24T06:59:02;12.52;;;10.45;;
39880;SDS011;25554;44.954;10.068;2022-07-24T07:01:29;15.75;;;10.55;;
39880;SDS011;25554;44.954;10.068;2022-07-24T07:03:56;14.85;;;11.50;;
39880;SDS011;25554;44.954;10.068;2022-07-24T07:06:22;13.55;;;10.95;;
39880;SDS011;25554;44.954;10.068;2022-07-24T07:08:49;12.27;;;10.88;;
39880;SDS011;25554;44.954;10.068;2022-07-24T07:11:15;13.18;;;11.23;;
39880;SDS011;25554;44.954;10.068;2022-07-24T07:13:42;13.02;;;10.05;;
39880;SDS011;25554;44.954;10.068;2022-07-24T07:16:08;13.43;;;10.55;;
39880;SDS011;25554;44.954;10.068;2022-07-24T07:18:35;13.80;;;10.70;;
39880;SDS011;25554;44.954;10.068;2022-07-24T07:21:02;15.75;;;11.93;;
39880;SDS011;25554;44.954;10.068;2022-07-24T07:23:29;14.15;;;11.80;;
39880;SDS011;25554;44.954;10.068;2022-07-24T07:25:55;16.80;;;12.07;;
39880;SDS011;25554;44.954;10.068;2022-07-24T07:28:22;16.15;;;11.07;;
39880;SDS011;25554;44.954;10.068;2022-07-24T07:30:48;14.80;;;11.07;;
39880;SDS011;25554;44.954;10.068;2022-07-24T07:33:15;13.50;;;12.18;;
39880;SDS011;25554;44.954;10.068;2022-07-24T07:35:41;13.05;;;11.70;;
39880;SDS011;25554;44.954;10.068;2022-07-24T07:38:08;16.95;;;11.18;;
39880;SDS011;25554;44.954;10.068;2022-07-24T07:40:35;14.63;;;12.93;;
39880;SDS011;25554;44.954;10.068;2022-07-24T07:43:01;12.82;;;11.48;;
39880;SDS011;25554;44.954;10.068;2022-07-24T07:45:27;14.52;;;13.02;;
39880;SDS011;25554;44.954;10.068;2022-07-24T07:47:54;12.82;;;11.57;;
39880;SDS011;25554;44.954;10.068;2022-07-24T07:50:21;12.93;;;10.52;;
39880;SDS011;25554;44.954;10.068;2022-07-24T07:52:47;12.25;;;10.95;;
39880;SDS011;25554;44.954;10.068;2022-07-24T07:55:14;15.63;;;12.45;;
39880;SDS011;25554;44.954;10.068;2022-07-24T07:57:40;11.15;;;9.88;;
39880;SDS011;25554;44.954;10.068;2022-07-24T08:00:09;15.40;;;13.00;;
39880;SDS011;25554;44.954;10.068;2022-07-24T08:02:39;13.02;;;11.07;;
39880;SDS011;25554;44.954;10.068;2022-07-24T08:05:06;14.10;;;12.55;;
39880;SDS011;25554;44.954;10.068;2022-07-24T08:07:33;14.25;;;11.40;;
39880;SDS011;25554;44.954;10.068;2022-07-24T08:09:59;13.10;;;11.68;;
39880;SDS011;25554;44.954;10.068;2022-07-24T08:12:26;17.23;;;11.77;;
39880;SDS011;25554;44.954;10.068;2022-07-24T08:14:52;11.73;;;10.40;;
39880;SDS011;25554;44.954;10.068;2022-07-24T08:17:19;13.55;;;12.13;;
39880;SDS011;25554;44.954;10.068;2022-07-24T08:19:46;11.27;;;9.45;;
39880;SDS011;25554;44.954;10.068;2022-07-24T08:22:12;11.18;;;10.07;;
39880;SDS011;25554;44.954;10.068;2022-07-24T08:24:39;14.13;;;12.02;;
39880;SDS011;25554;44.954;10.068;2022-07-24T08:27:06;14.70;;;12.48;;
39880;SDS011;25554;44.954;10.068;2022-07-24T08:29:32;13.32;;;11.88;;
39880;SDS011;25554;44.954;10.068;2022-07-24T08:31:59;13.52;;;11.25;;
39880;SDS011;25554;44.954;10.068;2022-07-24T08:34:26;16.20;;;10.75;;
39880;SDS011;25554;44.954;10.068;2022-07-24T08:36:52;15.70;;;11.77;;
39880;SDS011;25554;44.954;10.068;2022-07-24T08:39:19;17.75;;;11.40;;
39880;SDS011;25554;44.954;10.068;2022-07-24T08:41:46;13.68;;;11.98;;
39880;SDS011;25554;44.954;10.068;2022-07-24T08:44:12;12.98;;;11.57;;
39880;SDS011;25554;44.954;10.068;2022-07-24T08:46:39;12.95;;;11.63;;
39880;SDS011;25554;44.954;10.068;2022-07-24T08:49:08;12.48;;;11.00;;
39880;SDS011;25554;44.954;10.068;2022-07-24T08:51:37;11.57;;;10.43;;
39880;SDS011;25554;44.954;10.068;2022-07-24T08:54:05;20.10;;;12.60;;
39880;SDS011;25554;44.954;10.068;2022-07-24T08:56:32;14.73;;;12.32;;
39880;SDS011;25554;44.954;10.068;2022-07-24T08:58:59;12.30;;;11.05;;
39880;SDS011;25554;44.954;10.068;2022-07-24T09:01:26;12.77;;;11.57;;
39880;SDS011;25554;44.954;10.068;2022-07-24T09:03:54;12.18;;;10.98;;
39880;SDS011;25554;44.954;10.068;2022-07-24T09:06:20;14.80;;;11.70;;
39880;SDS011;25554;44.954;10.068;2022-07-24T09:08:57;13.68;;;12.10;;
39880;SDS011;25554;44.954;10.068;2022-07-24T09:11:28;16.10;;;12.70;;
39880;SDS011;25554;44.954;10.068;2022-07-24T09:13:59;12.50;;;10.85;;
39880;SDS011;25554;44.954;10.068;2022-07-24T09:16:45;13.75;;;10.48;;
39880;SDS011;25554;44.954;10.068;2022-07-24T09:19:13;12.05;;;10.65;;
39880;SDS011;25554;44.954;10.068;2022-07-24T09:21:41;18.52;;;12.00;;
39880;SDS011;25554;44.954;10.068;2022-07-24T09:24:13;17.48;;;11.85;;
39880;SDS011;25554;44.954;10.068;2022-07-24T09:26:48;12.07;;;9.85;;
39880;SDS011;25554;44.954;10.068;2022-07-24T09:29:20;11.55;;;10.02;;
39880;SDS011;25554;44.954;10.068;2022-07-24T09:34:27;12.15;;;10.95;;
39880;SDS011;25554;44.954;10.068;2022-07-24T09:37:04;14.85;;;11.98;;
39880;SDS011;25554;44.954;10.068;2022-07-24T09:39:32;12.80;;;11.25;;
39880;SDS011;25554;44.954;10.068;2022-07-24T09:42:01;13.02;;;10.68;;
39880;SDS011;25554;44.954;10.068;2022-07-24T09:44:29;16.17;;;11.30;;
39880;SDS011;25554;44.954;10.068;2022-07-24T09:46:57;12.18;;;10.82;;
39880;SDS011;25554;44.954;10.068;2022-07-24T09:49:26;12.70;;;11.48;;
39880;SDS011;25554;44.954;10.068;2022-07-24T09:54:44;16.27;;;10.82;;
39880;SDS011;25554;44.954;10.068;2022-07-24T09:57:23;12.65;;;11.35;;
39880;SDS011;25554;44.954;10.068;2022-07-24T09:59:58;12.93;;;11.25;;
39880;SDS011;25554;44.954;10.068;2022-07-24T10:02:27;13.25;;;11.13;;
39880;SDS011;25554;44.954;10.068;2022-07-24T10:04:58;12.13;;;9.75;;
39880;SDS011;25554;44.954;10.068;2022-07-24T10:07:26;12.75;;;10.20;;
39880;SDS011;25554;44.954;10.068;2022-07-24T10:09:55;11.07;;;10.02;;
39880;SDS011;25554;44.954;10.068;2022-07-24T10:12:24;11.18;;;10.10;;
39880;SDS011;25554;44.954;10.068;2022-07-24T10:14:53;10.95;;;9.90;;
39880;SDS011;25554;44.954;10.068;2022-07-24T10:17:22;16.70;;;10.88;;
39880;SDS011;25554;44.954;10.068;2022-07-24T10:20:07;11.13;;;8.80;;
39880;SDS011;25554;44.954;10.068;2022-07-24T10:22:40;10.75;;;9.65;;
39880;SDS011;25554;44.954;10.068;2022-07-24T10:25:24;9.95;;;8.95;;
39880;SDS011;25554;44.954;10.068;2022-07-24T10:27:51;13.52;;;9.25;;
39880;SDS011;25554;44.954;10.068;2022-07-24T10:30:23;13.32;;;9.90;;
39880;SDS011;25554;44.954;10.068;2022-07-24T10:32:51;9.88;;;8.98;;
39880;SDS011;25554;44.954;10.068;2022-07-24T10:35:24;10.25;;;8.43;;
39880;SDS011;25554;44.954;10.068;2022-07-24T10:38:08;14.18;;;9.52;;
39880;SDS011;25554;44.954;10.068;2022-07-24T10:40:49;12.15;;;9.45;;
39880;SDS011;25554;44.954;10.068;2022-07-24T10:43:21;12.65;;;9.93;;
39880;SDS011;25554;44.954;10.068;2022-07-24T11:01:45;11.13;;;8.98;;
39880;SDS011;25554;44.954;10.068;2022-07-24T11:06:49;10.05;;;9.05;;
39880;SDS011;25554;44.954;10.068;2022-07-24T11:09:25;11.68;;;8.65;;
39880;SDS011;25554;44.954;10.068;2022-07-24T11:14:23;9.55;;;8.60;;
39880;SDS011;25554;44.954;10.068;2022-07-24T11:20:13;9.57;;;8.48;;
39880;SDS011;25554;44.954;10.068;2022-07-24T11:22:49;9.98;;;8.98;;
39880;SDS011;25554;44.954;10.068;2022-07-24T11:25:26;10.05;;;9.05;;
39880;SDS011;25554;44.954;10.068;2022-07-24T11:27:58;9.10;;;8.20;;
39880;SDS011;25554;44.954;10.068;2022-07-24T11:30:42;9.05;;;8.23;;
39880;SDS011;25554;44.954;10.068;2022-07-24T11:33:10;8.77;;;7.70;;
39880;SDS011;25554;44.954;10.068;2022-07-24T11:35:38;9.20;;;7.70;;
39880;SDS011;25554;44.954;10.068;2022-07-24T11:38:06;10.27;;;8.52;;
39880;SDS011;25554;44.954;10.068;2022-07-24T11:40:33;9.93;;;7.90;;
39880;SDS011;25554;44.954;10.068;2022-07-24T11:43:02;10.65;;;9.38;;
39880;SDS011;25554;44.954;10.068;2022-07-24T11:45:31;10.45;;;7.63;;
39880;SDS011;25554;44.954;10.068;2022-07-24T11:47:57;10.00;;;8.05;;
39880;SDS011;25554;44.954;10.068;2022-07-24T11:50:25;8.95;;;7.75;;
39880;SDS011;25554;44.954;10.068;2022-07-24T11:52:52;8.88;;;7.40;;
39880;SDS011;25554;44.954;10.068;2022-07-24T11:55:20;8.70;;;7.30;;
39880;SDS011;25554;44.954;10.068;2022-07-24T11:57:51;11.43;;;7.85;;
39880;SDS011;25554;44.954;10.068;2022-07-24T12:00:21;8.50;;;7.70;;
39880;SDS011;25554;44.954;10.068;2022-07-24T12:02:52;11.00;;;7.82;;
39880;SDS011;25554;44.954;10.068;2022-07-24T12:07:50;8.00;;;7.22;;
39880;SDS011;25554;44.954;10.068;2022-07-24T12:10:20;9.05;;;8.15;;
39880;SDS011;25554;44.954;10.068;2022-07-24T12:12:51;6.63;;;6.00;;
39880;SDS011;25554;44.954;10.068;2022-07-24T12:15:22;7.47;;;6.72;;
39880;SDS011;25554;44.954;10.068;2022-07-24T12:20:21;14.05;;;6.65;;
39880;SDS011;25554;44.954;10.068;2022-07-24T12:22:49;6.88;;;6.28;;
39880;SDS011;25554;44.954;10.068;2022-07-24T12:25:16;7.22;;;6.43;;
39880;SDS011;25554;44.954;10.068;2022-07-24T12:27:44;7.00;;;6.40;;
39880;SDS011;25554;44.954;10.068;2022-07-24T12:30:23;7.30;;;6.47;;
39880;SDS011;25554;44.954;10.068;2022-07-24T12:33:00;9.27;;;6.05;;
39880;SDS011;25554;44.954;10.068;2022-07-24T12:35:29;6.72;;;6.07;;
39880;SDS011;25554;44.954;10.068;2022-07-24T12:37:57;7.00;;;6.25;;
39880;SDS011;25554;44.954;10.068;2022-07-24T12:40:29;9.40;;;6.85;;
39880;SDS011;25554;44.954;10.068;2022-07-24T12:42:56;9.85;;;6.70;;
39880;SDS011;25554;44.954;10.068;2022-07-24T12:45:24;6.88;;;6.15;;
39880;SDS011;25554;44.954;10.068;2022-07-24T12:50:50;8.85;;;6.60;;
39880;SDS011;25554;44.954;10.068;2022-07-24T12:53:28;7.68;;;6.93;;
39880;SDS011;25554;44.954;10.068;2022-07-24T12:56:00;8.27;;;6.93;;
39880;SDS011;25554;44.954;10.068;2022-07-24T13:01:18;7.78;;;6.50;;
39880;SDS011;25554;44.954;10.068;2022-07-24T13:03:59;8.27;;;6.55;;
39880;SDS011;25554;44.954;10.068;2022-07-24T13:09:07;7.10;;;6.40;;
39880;SDS011;25554;44.954;10.068;2022-07-24T13:11:38;7.65;;;6.82;;
39880;SDS011;25554;44.954;10.068;2022-07-24T13:14:05;9.15;;;6.78;;
39880;SDS011;25554;44.954;10.068;2022-07-24T13:16:33;6.80;;;6.20;;
39880;SDS011;25554;44.954;10.068;2022-07-24T13:19:01;10.30;;;6.63;;
39880;SDS011;25554;44.954;10.068;2022-07-24T13:21:28;7.85;;;6.60;;
39880;SDS011;25554;44.954;10.068;2022-07-24T13:23:55;7.85;;;6.45;;
39880;SDS011;25554;44.954;10.068;2022-07-24T13:26:21;6.85;;;6.15;;
39880;SDS011;25554;44.954;10.068;2022-07-24T13:28:48;6.40;;;5.80;;
39880;SDS011;25554;44.954;10.068;2022-07-24T13:31:14;11.13;;;7.07;;
39880;SDS011;25554;44.954;10.068;2022-07-24T13:33:41;12.45;;;7.88;;
39880;SDS011;25554;44.954;10.068;2022-07-24T13:36:08;6.50;;;5.88;;
39880;SDS011;25554;44.954;10.068;2022-07-24T13:38:34;9.70;;;6.63;;
39880;SDS011;25554;44.954;10.068;2022-07-24T13:41:01;8.25;;;6.43;;
39880;SDS011;25554;44.954;10.068;2022-07-24T13:43:27;8.00;;;6.68;;
39880;SDS011;25554;44.954;10.068;2022-07-24T13:45:54;7.57;;;6.07;;
39880;SDS011;25554;44.954;10.068;2022-07-24T13:48:21;6.28;;;5.68;;
39880;SDS011;25554;44.954;10.068;2022-07-24T13:50:47;7.22;;;6.18;;
39880;SDS011;25554;44.954;10.068;2022-07-24T13:53:14;7.78;;;6.15;;
39880;SDS011;25554;44.954;10.068;2022-07-24T13:55:40;6.85;;;6.18;;
39880;SDS011;25554;44.954;10.068;2022-07-24T13:58:07;7.13;;;5.85;;
39880;SDS011;25554;44.954;10.068;2022-07-24T14:00:34;9.00;;;6.32;;
39880;SDS011;25554;44.954;10.068;2022-07-24T14:03:00;9.25;;;6.05;;
39880;SDS011;25554;44.954;10.068;2022-07-24T14:05:27;7.68;;;6.03;;
39880;SDS011;25554;44.954;10.068;2022-07-24T14:07:54;7.72;;;5.90;;
39880;SDS011;25554;44.954;10.068;2022-07-24T14:10:20;7.43;;;6.20;;
39880;SDS011;25554;44.954;10.068;2022-07-24T14:12:47;8.55;;;6.95;;
39880;SDS011;25554;44.954;10.068;2022-07-24T14:15:14;7.72;;;5.82;;
39880;SDS011;25554;44.954;10.068;2022-07-24T14:17:41;6.80;;;6.20;;
39880;SDS011;25554;44.954;10.068;2022-07-24T14:20:09;6.20;;;5.70;;
39880;SDS011;25554;44.954;10.068;2022-07-24T14:22:37;7.65;;;6.35;;
39880;SDS011;25554;44.954;10.068;2022-07-24T14:25:05;7.22;;;6.53;;
39880;SDS011;25554;44.954;10.068;2022-07-24T14:27:32;8.07;;;6.28;;
39880;SDS011;25554;44.954;10.068;2022-07-24T14:29:59;7.10;;;5.97;;
39880;SDS011;25554;44.954;10.068;2022-07-24T14:32:25;7.10;;;6.30;;
39880;SDS011;25554;44.954;10.068;2022-07-24T14:34:52;7.05;;;6.18;;
39880;SDS011;25554;44.954;10.068;2022-07-24T14:37:18;6.25;;;5.75;;
39880;SDS011;25554;44.954;10.068;2022-07-24T14:39:45;6.88;;;6.07;;
39880;SDS011;25554;44.954;10.068;2022-07-24T14:42:11;6.90;;;6.28;;
39880;SDS011;25554;44.954;10.068;2022-07-24T14:44:38;7.25;;;6.18;;
39880;SDS011;25554;44.954;10.068;2022-07-24T14:47:04;6.68;;;6.13;;
39880;SDS011;25554;44.954;10.068;2022-07-24T14:49:31;6.63;;;6.00;;
39880;SDS011;25554;44.954;10.068;2022-07-24T14:51:58;7.15;;;6.45;;
39880;SDS011;25554;44.954;10.068;2022-07-24T14:54:24;8.98;;;6.68;;
39880;SDS011;25554;44.954;10.068;2022-07-24T14:56:51;6.68;;;6.03;;
39880;SDS011;25554;44.954;10.068;2022-07-24T14:59:18;8.82;;;7.20;;
39880;SDS011;25554;44.954;10.068;2022-07-24T15:01:44;7.25;;;6.55;;
39880;SDS011;25554;44.954;10.068;2022-07-24T15:04:11;7.85;;;6.78;;
39880;SDS011;25554;44.954;10.068;2022-07-24T15:06:37;8.10;;;6.45;;